CheckWX is a tool to help pilots better visualize weather data.  It is not intended as a substitute for an official pre-flight weather briefing.

08:12:31 UTC

KWLD METAR
Strother Field Airport
Winfield/Arkansas City, Kansas, USA
Current

19 mins ago

KWLD 230754Z AUTO 35007KT 10SM OVC038 14/09 A3010 RMK AO2 SLP186 T01390094
Observed
Apr-23 @ 07:54 UTC
Wind
  • 350° at 7 KTS
Visibility
10 SM
Flight Rules
VFR
Cloud Levels
  • Overcast at 3,800' AGL
Temperature
14°C / 57°F
Dewpoint
C / 48°F
Humidity
72%
Altimeter
30.1" Hg
Pressure
1019.32 hPa
Previous

1 hour ago

KWLD 230654Z AUTO 35009KT 10SM OVC037 14/10 A3010 RMK AO2 SLP186 T01440100
Observed
Apr-23 @ 06:54 UTC
Wind
  • 350° at 9 KTS
Visibility
10 SM
Flight Rules
VFR
Cloud Levels
  • Overcast at 3,700' AGL
Temperature
14°C / 57°F
Dewpoint
10°C / 50°F
Humidity
77%
Altimeter
30.1" Hg
Pressure
1019.32 hPa
Previous

2 hours ago

KWLD 230554Z AUTO 02006KT 10SM BKN035 15/11 A3009 RMK AO2 SLP181 T01500106 10200 20139 402330133 53002
Observed
Apr-23 @ 05:54 UTC
Wind
  • 020° at 6 KTS
Visibility
10 SM
Flight Rules
VFR
Cloud Levels
  • Broken at 3,500' AGL
Temperature
15°C / 59°F
Dewpoint
11°C / 52°F
Humidity
77%
Altimeter
30.09" Hg
Pressure
1018.92 hPa